createdAt,value
2018-09-27T00:00:45.312Z,19.80
2018-09-27T00:01:45.272Z,22.60
2018-09-27T00:02:45.303Z,14.30
2018-09-27T00:03:45.223Z,11.20
2018-09-27T00:04:45.534Z,12.60
2018-09-27T00:05:45.167Z,15.60
2018-09-27T00:06:45.128Z,17.50
2018-09-27T00:07:45.133Z,15.00
2018-09-27T00:08:45.084Z,14.30
2018-09-27T00:09:45.031Z,15.60
2018-09-27T00:10:45.186Z,16.80
2018-09-27T00:11:44.977Z,14.10
2018-09-27T00:12:44.939Z,10.60
2018-09-27T00:13:44.911Z,11.00
2018-09-27T00:14:44.906Z,15.00
2018-09-27T00:15:44.881Z,14.40
2018-09-27T00:16:44.862Z,12.10
2018-09-27T00:17:44.818Z,14.30
2018-09-27T00:18:44.761Z,16.10
2018-09-27T00:19:44.734Z,16.10
2018-09-27T00:20:44.714Z,12.10
2018-09-27T00:21:44.680Z,14.00
2018-09-27T00:22:44.647Z,9.90
2018-09-27T00:23:44.651Z,11.90
2018-09-27T00:24:44.597Z,12.20
2018-09-27T00:25:44.551Z,13.90
2018-09-27T00:26:44.588Z,8.80
2018-09-27T00:27:44.493Z,10.20
2018-09-27T00:28:44.472Z,6.50
2018-09-27T00:29:44.530Z,14.10
2018-09-27T00:30:44.425Z,7.50
2018-09-27T00:31:44.550Z,10.50
2018-09-27T00:32:44.492Z,9.60
2018-09-27T00:33:44.309Z,12.00
2018-09-27T00:34:44.310Z,11.00
2018-09-27T00:35:44.265Z,12.10
2018-09-27T00:36:44.512Z,13.70
2018-09-27T00:37:44.190Z,20.10
2018-09-27T00:38:44.246Z,13.60
2018-09-27T00:39:44.215Z,8.10
2018-09-27T00:40:44.130Z,14.70
2018-09-27T00:41:44.066Z,11.40
2018-09-27T00:42:44.086Z,9.20
2018-09-27T00:43:44.039Z,16.20
2018-09-27T00:44:43.980Z,20.40
2018-09-27T00:45:43.945Z,15.00
2018-09-27T00:46:43.916Z,11.90
2018-09-27T00:47:43.895Z,24.10
2018-09-27T00:49:43.837Z,10.90
2018-09-27T00:50:43.797Z,10.80
2018-09-27T00:51:43.765Z,12.10
2018-09-27T00:52:43.854Z,8.70
2018-09-27T00:53:43.711Z,17.90
2018-09-27T00:54:43.694Z,10.20
2018-09-27T00:55:43.644Z,11.90
2018-09-27T00:56:43.607Z,13.80
2018-09-27T00:57:43.614Z,7.10
2018-09-27T00:58:43.549Z,11.00
2018-09-27T00:59:43.770Z,11.70
2018-09-27T01:00:43.509Z,11.60
2018-09-27T01:01:43.457Z,12.30
2018-09-27T01:02:43.425Z,18.30
2018-09-27T01:03:43.399Z,12.20
2018-09-27T01:04:43.394Z,17.00
2018-09-27T01:06:43.314Z,11.40
2018-09-27T01:07:43.275Z,14.50
2018-09-27T01:08:43.251Z,10.40
2018-09-27T01:09:43.214Z,11.40
2018-09-27T01:10:43.229Z,10.00
2018-09-27T01:11:43.153Z,17.70
2018-09-27T01:12:43.136Z,11.90
2018-09-27T01:13:43.102Z,5.90
2018-09-27T01:14:43.064Z,6.20
2018-09-27T01:15:43.027Z,8.00
2018-09-27T01:16:43.021Z,7.90
2018-09-27T01:17:43.074Z,10.30
2018-09-27T01:18:42.955Z,16.00
2018-09-27T01:19:42.910Z,7.90
2018-09-27T01:20:42.879Z,9.50
2018-09-27T01:21:42.843Z,10.80
2018-09-27T01:22:42.822Z,6.90
2018-09-27T01:23:42.798Z,8.60
2018-09-27T01:24:42.766Z,8.80
2018-09-27T01:25:42.740Z,10.90
2018-09-27T01:26:42.719Z,5.60
2018-09-27T01:27:42.666Z,7.60
2018-09-27T01:28:42.633Z,11.50
2018-09-27T01:29:42.612Z,6.10
2018-09-27T01:30:42.610Z,6.60
2018-09-27T01:31:42.741Z,7.40
2018-09-27T01:32:42.715Z,9.10
2018-09-27T01:33:42.625Z,6.20
2018-09-27T01:34:42.448Z,12.50
2018-09-27T01:35:42.420Z,11.00
2018-09-27T01:36:42.413Z,12.30
2018-09-27T01:37:42.559Z,12.20
2018-09-27T01:38:42.384Z,7.90
2018-09-27T01:39:42.317Z,11.00
2018-09-27T01:40:42.265Z,5.50
2018-09-27T01:41:42.234Z,7.00
2018-09-27T01:42:42.202Z,14.00
2018-09-27T01:43:42.522Z,7.30
2018-09-27T01:44:42.154Z,6.00
2018-09-27T01:45:42.110Z,7.70
2018-09-27T01:46:42.091Z,11.30
2018-09-27T01:47:42.048Z,5.40
2018-09-27T01:48:42.037Z,11.40
2018-09-27T01:50:41.960Z,12.30
2018-09-27T01:51:41.938Z,14.10
2018-09-27T01:52:41.903Z,13.10
2018-09-27T01:53:41.872Z,11.30
2018-09-27T01:54:41.836Z,10.20
2018-09-27T01:55:41.799Z,11.50
2018-09-27T01:56:41.785Z,10.60
2018-09-27T01:57:41.748Z,11.70
2018-09-27T01:58:41.709Z,5.90
2018-09-27T01:59:41.690Z,10.80
2018-09-27T02:00:41.682Z,7.70
2018-09-27T02:01:41.618Z,8.30
2018-09-27T02:02:41.610Z,9.00
2018-09-27T02:03:41.568Z,5.90
2018-09-27T02:04:41.533Z,5.60
2018-09-27T02:05:41.701Z,7.50
2018-09-27T02:06:41.491Z,8.30
2018-09-27T02:07:41.437Z,4.90
2018-09-27T02:08:41.413Z,4.80
2018-09-27T02:09:41.384Z,13.70
2018-09-27T02:10:41.358Z,6.10
2018-09-27T02:11:41.414Z,7.80
2018-09-27T02:12:41.301Z,7.20
2018-09-27T02:13:41.251Z,10.40
2018-09-27T02:14:41.300Z,7.90
2018-09-27T02:15:41.195Z,10.10
2018-09-27T02:16:41.174Z,7.70
2018-09-27T02:17:41.133Z,6.40
2018-09-27T02:18:41.093Z,7.70
2018-09-27T02:19:41.070Z,5.30
2018-09-27T02:20:41.081Z,5.60
2018-09-27T02:21:41.027Z,6.70
2018-09-27T02:22:40.968Z,5.10
2018-09-27T02:23:40.940Z,7.10
2018-09-27T02:24:40.935Z,7.20
2018-09-27T02:25:40.893Z,6.30
2018-09-27T02:26:40.853Z,8.00
2018-09-27T02:27:40.820Z,3.70
2018-09-27T02:28:40.812Z,4.10
2018-09-27T02:29:40.774Z,6.30
2018-09-27T02:30:40.729Z,5.40
2018-09-27T02:31:40.703Z,6.10
2018-09-27T02:32:40.673Z,7.80
2018-09-27T02:33:40.635Z,5.70
2018-09-27T02:34:40.604Z,5.90
2018-09-27T02:35:40.575Z,7.20
2018-09-27T02:36:40.551Z,4.00
2018-09-27T02:37:40.871Z,4.90
2018-09-27T02:38:40.479Z,5.40
2018-09-27T02:39:40.451Z,8.90
2018-09-27T02:40:40.424Z,6.90
2018-09-27T02:41:40.397Z,6.40
2018-09-27T02:42:40.349Z,10.40
2018-09-27T02:43:40.327Z,7.30
2018-09-27T02:44:40.295Z,4.60
2018-09-27T02:45:40.275Z,5.30
2018-09-27T02:46:40.235Z,6.80
2018-09-27T02:47:40.204Z,7.20
2018-09-27T02:48:40.171Z,6.60
2018-09-27T02:49:40.151Z,6.00
2018-09-27T02:50:40.110Z,17.10
2018-09-27T02:51:40.087Z,13.00
2018-09-27T02:52:40.062Z,29.90
2018-09-27T02:53:40.015Z,39.90
2018-09-27T02:54:39.996Z,42.10
2018-09-27T02:55:39.953Z,37.80
2018-09-27T02:56:39.950Z,39.90
2018-09-27T02:57:39.911Z,23.60
2018-09-27T02:58:39.862Z,20.10
2018-09-27T02:59:39.832Z,26.90
2018-09-27T03:00:39.806Z,13.50
2018-09-27T03:01:39.765Z,16.20
2018-09-27T03:02:39.860Z,16.50
2018-09-27T03:03:39.814Z,10.20
2018-09-27T03:04:39.841Z,12.20
2018-09-27T03:05:39.651Z,14.30
2018-09-27T03:06:39.612Z,8.30
2018-09-27T03:07:39.584Z,11.50
2018-09-27T03:08:39.555Z,12.30
2018-09-27T03:09:39.741Z,18.70
2018-09-27T03:10:39.489Z,8.70
2018-09-27T03:11:39.462Z,8.40
2018-09-27T03:12:39.430Z,13.70
2018-09-27T03:13:39.399Z,10.80
2018-09-27T03:14:39.369Z,18.10
2018-09-27T03:15:39.484Z,9.90
2018-09-27T03:16:39.339Z,10.20
2018-09-27T03:17:39.309Z,16.00
2018-09-27T03:18:39.261Z,11.70
2018-09-27T03:19:39.214Z,10.00
2018-09-27T03:20:39.295Z,10.30
2018-09-27T03:21:39.194Z,10.50
2018-09-27T03:22:39.167Z,7.80
2018-09-27T03:23:39.155Z,8.80
2018-09-27T03:24:39.051Z,13.70
2018-09-27T03:25:39.019Z,7.50
2018-09-27T03:26:38.988Z,4.70
2018-09-27T03:27:38.962Z,7.70
2018-09-27T03:28:38.929Z,6.30
2018-09-27T03:29:38.899Z,10.90
2018-09-27T03:30:38.868Z,6.40
2018-09-27T03:31:38.840Z,8.60
2018-09-27T03:32:38.808Z,10.40
2018-09-27T03:33:38.781Z,6.50
2018-09-27T03:34:38.747Z,7.70
2018-09-27T03:35:38.717Z,8.50
2018-09-27T03:36:38.680Z,5.90
2018-09-27T03:37:38.670Z,11.40
2018-09-27T03:38:38.629Z,2.70
2018-09-27T03:39:38.664Z,4.60
2018-09-27T03:40:38.587Z,8.80
2018-09-27T03:41:38.674Z,7.10
2018-09-27T03:42:38.489Z,9.90
2018-09-27T03:43:38.461Z,5.90
2018-09-27T03:44:38.440Z,4.80
2018-09-27T03:45:38.405Z,6.30
2018-09-27T03:46:38.362Z,4.40
2018-09-27T03:47:38.496Z,4.90
2018-09-27T03:48:38.312Z,5.90
2018-09-27T03:49:38.273Z,5.80
2018-09-27T03:50:38.242Z,6.90
2018-09-27T03:51:38.211Z,6.50
2018-09-27T03:52:38.180Z,7.00
2018-09-27T03:53:38.142Z,7.10
2018-09-27T03:54:38.154Z,9.00
2018-09-27T03:55:38.086Z,7.10
2018-09-27T03:56:38.050Z,9.00
2018-09-27T03:57:38.014Z,6.40
2018-09-27T03:58:37.985Z,10.00
2018-09-27T03:59:37.963Z,8.70
2018-09-27T04:00:37.978Z,11.60
2018-09-27T04:01:37.902Z,10.90
2018-09-27T04:02:37.866Z,6.70
2018-09-27T04:03:37.836Z,7.20
2018-09-27T04:04:37.806Z,5.90
2018-09-27T04:05:37.773Z,12.90
2018-09-27T04:06:37.747Z,3.80
2018-09-27T04:07:37.721Z,9.80
2018-09-27T04:08:37.679Z,11.80
2018-09-27T04:09:37.646Z,4.30
2018-09-27T04:10:37.610Z,8.20
2018-09-27T04:11:37.579Z,7.60
2018-09-27T04:12:37.607Z,7.20
2018-09-27T04:13:37.872Z,8.20
2018-09-27T04:14:37.497Z,5.20
2018-09-27T04:15:37.460Z,6.70
2018-09-27T04:16:37.423Z,8.30
2018-09-27T04:17:37.392Z,5.00
2018-09-27T04:18:37.361Z,9.30
2018-09-27T04:19:37.531Z,10.60
2018-09-27T04:20:37.304Z,11.60
2018-09-27T04:21:37.267Z,10.00
2018-09-27T04:22:37.238Z,10.60
2018-09-27T04:23:37.209Z,9.20
2018-09-27T04:24:37.169Z,13.40
2018-09-27T04:25:37.151Z,13.00
2018-09-27T04:26:37.112Z,19.80
2018-09-27T04:27:37.085Z,15.90
2018-09-27T04:28:37.049Z,12.40
2018-09-27T04:29:37.023Z,9.00
2018-09-27T04:30:36.987Z,7.60
2018-09-27T04:31:36.949Z,8.20
2018-09-27T04:32:36.918Z,9.60
2018-09-27T04:33:36.936Z,11.00
2018-09-27T04:34:36.861Z,9.60
2018-09-27T04:35:36.868Z,7.90
2018-09-27T04:36:36.814Z,11.40
2018-09-27T04:37:36.760Z,10.00
2018-09-27T04:38:36.728Z,11.40
2018-09-27T04:39:36.701Z,8.10
2018-09-27T04:40:36.669Z,10.10
2018-09-27T04:41:36.633Z,8.70
2018-09-27T04:42:36.609Z,10.70
2018-09-27T04:43:36.571Z,8.30
2018-09-27T04:44:36.541Z,12.20
2018-09-27T04:45:36.872Z,9.00
2018-09-27T04:46:36.540Z,8.50
2018-09-27T04:47:36.496Z,6.30
2018-09-27T04:48:36.420Z,8.70
2018-09-27T04:49:36.384Z,8.00
2018-09-27T04:50:36.384Z,11.80
2018-09-27T04:51:36.358Z,11.90
2018-09-27T04:52:36.297Z,13.60
2018-09-27T04:53:36.255Z,18.10
2018-09-27T04:54:36.249Z,13.10
2018-09-27T04:55:36.202Z,14.60
2018-09-27T04:56:36.171Z,15.90
2018-09-27T04:57:36.129Z,12.60
2018-09-27T04:58:36.105Z,11.40
2018-09-27T04:59:36.066Z,13.40
2018-09-27T05:00:36.033Z,15.10
2018-09-27T05:01:36.004Z,14.80
2018-09-27T05:02:35.970Z,15.80
2018-09-27T05:03:35.941Z,12.20
2018-09-27T05:04:35.910Z,15.90
2018-09-27T05:05:35.878Z,17.60
2018-09-27T05:06:35.845Z,18.40
2018-09-27T05:07:35.814Z,18.40
2018-09-27T05:08:35.794Z,17.10
2018-09-27T05:09:35.780Z,14.80
2018-09-27T05:10:35.714Z,17.20
2018-09-27T05:11:35.688Z,22.40
2018-09-27T05:12:35.675Z,16.80
2018-09-27T05:13:35.625Z,17.20
2018-09-27T05:14:35.597Z,13.90
2018-09-27T05:15:35.592Z,16.10
2018-09-27T05:16:35.538Z,17.10
2018-09-27T05:17:35.700Z,20.00
2018-09-27T05:18:35.467Z,16.90
2018-09-27T05:19:35.439Z,12.30
2018-09-27T05:20:35.420Z,20.40
2018-09-27T05:21:35.454Z,12.10
2018-09-27T05:22:35.353Z,14.00
2018-09-27T05:23:35.566Z,14.00
2018-09-27T05:24:35.287Z,16.60
2018-09-27T05:25:35.251Z,10.90
2018-09-27T05:26:35.221Z,14.20
2018-09-27T05:27:35.193Z,11.90
2018-09-27T05:28:35.157Z,18.40
2018-09-27T05:29:35.124Z,13.70
2018-09-27T05:30:35.095Z,12.00
2018-09-27T05:31:35.060Z,12.30
2018-09-27T05:32:35.032Z,16.50
2018-09-27T05:33:35.059Z,14.70
2018-09-27T05:34:34.966Z,12.00
2018-09-27T05:35:34.942Z,10.80
2018-09-27T05:36:34.901Z,10.00
2018-09-27T05:37:34.875Z,20.40
2018-09-27T05:38:34.839Z,9.70
2018-09-27T05:39:34.829Z,12.90
2018-09-27T05:40:34.781Z,11.70
2018-09-27T05:41:34.752Z,8.80
2018-09-27T05:42:34.712Z,11.60
2018-09-27T05:43:34.681Z,10.90
2018-09-27T05:44:34.649Z,6.80
2018-09-27T05:45:34.649Z,6.60
2018-09-27T05:46:34.582Z,6.70
2018-09-27T05:47:34.553Z,8.90
2018-09-27T05:48:34.518Z,7.50
2018-09-27T05:49:34.490Z,12.10
2018-09-27T05:50:34.455Z,9.10
2018-09-27T05:51:34.428Z,9.50
2018-09-27T05:52:34.393Z,9.00
2018-09-27T05:53:34.359Z,6.00
2018-09-27T05:54:34.326Z,9.90
2018-09-27T05:55:34.333Z,12.00
2018-09-27T05:56:34.264Z,11.40
2018-09-27T05:57:34.265Z,9.00
2018-09-27T05:58:34.203Z,7.90
2018-09-27T05:59:34.167Z,9.80
2018-09-27T06:00:34.160Z,8.50
2018-09-27T06:01:34.104Z,7.40
2018-09-27T06:02:34.079Z,11.20
2018-09-27T06:03:34.060Z,7.50
2018-09-27T06:04:34.012Z,10.50
2018-09-27T06:05:33.972Z,10.30
2018-09-27T06:06:33.941Z,8.00
2018-09-27T06:07:33.909Z,9.00
2018-09-27T06:08:33.885Z,8.30
2018-09-27T06:09:33.863Z,11.50
2018-09-27T06:10:33.815Z,7.80
2018-09-27T06:11:33.832Z,11.90
2018-09-27T06:12:33.757Z,12.20
2018-09-27T06:13:33.718Z,12.60
2018-09-27T06:14:33.683Z,10.40
2018-09-27T06:15:33.674Z,7.20
2018-09-27T06:16:33.619Z,13.40
2018-09-27T06:17:33.597Z,12.50
2018-09-27T06:18:33.567Z,6.30
2018-09-27T06:19:33.711Z,13.30
2018-09-27T06:20:33.490Z,11.90
2018-09-27T06:21:33.491Z,11.00
2018-09-27T06:22:33.434Z,10.00
2018-09-27T06:23:33.397Z,12.90
2018-09-27T06:24:33.365Z,8.90
2018-09-27T06:25:33.481Z,8.60
2018-09-27T06:26:33.313Z,8.00
2018-09-27T06:27:33.288Z,11.50
2018-09-27T06:28:33.233Z,8.60
2018-09-27T06:29:33.203Z,10.60
2018-09-27T06:30:33.166Z,10.10
2018-09-27T06:31:33.137Z,8.30
2018-09-27T06:32:33.103Z,7.00
2018-09-27T06:33:33.162Z,12.10
2018-09-27T06:34:33.043Z,9.00
2018-09-27T06:35:33.012Z,12.30
2018-09-27T06:36:32.973Z,11.80
2018-09-27T06:37:32.942Z,7.20
2018-09-27T06:38:32.950Z,8.80
2018-09-27T06:39:32.888Z,9.40
2018-09-27T06:40:32.845Z,12.70
2018-09-27T06:41:32.876Z,9.20
2018-09-27T06:42:32.790Z,7.90
2018-09-27T06:43:32.747Z,10.10
2018-09-27T06:44:32.731Z,7.10
2018-09-27T06:45:32.699Z,8.10
2018-09-27T06:46:32.850Z,7.00
2018-09-27T06:47:32.621Z,10.90
2018-09-27T06:48:32.592Z,8.40
2018-09-27T06:49:32.556Z,7.00
2018-09-27T06:50:32.609Z,10.90
2018-09-27T06:51:32.489Z,8.60
2018-09-27T06:52:32.455Z,9.60
2018-09-27T06:53:32.421Z,9.00
2018-09-27T06:54:32.394Z,10.50
2018-09-27T06:55:32.406Z,10.30
2018-09-27T06:56:32.367Z,8.60
2018-09-27T06:57:32.306Z,8.10
2018-09-27T06:58:32.261Z,8.70
2018-09-27T06:59:32.229Z,11.10
2018-09-27T07:00:32.198Z,9.80
2018-09-27T07:01:32.178Z,5.20
2018-09-27T07:02:32.219Z,8.70
2018-09-27T07:03:32.099Z,7.60
2018-09-27T07:04:32.066Z,9.00
2018-09-27T07:05:32.033Z,9.80
2018-09-27T07:06:32.004Z,10.50
2018-09-27T07:07:31.970Z,8.80
2018-09-27T07:08:31.996Z,10.20
2018-09-27T07:09:31.905Z,11.90
2018-09-27T07:10:31.871Z,12.90
2018-09-27T07:11:31.837Z,12.40
2018-09-27T07:12:32.019Z,9.70
2018-09-27T07:13:31.773Z,8.80
2018-09-27T07:14:31.798Z,6.60
2018-09-27T07:15:31.722Z,13.40
2018-09-27T07:16:31.680Z,8.40
2018-09-27T07:17:31.644Z,8.10
2018-09-27T07:18:31.872Z,9.60
2018-09-27T07:19:31.580Z,10.20
2018-09-27T07:20:31.557Z,8.30
2018-09-27T07:21:31.519Z,10.70
2018-09-27T07:22:31.491Z,8.90
2018-09-27T07:23:31.447Z,7.10
2018-09-27T07:24:31.623Z,8.00
2018-09-27T07:25:31.381Z,10.10
2018-09-27T07:26:31.386Z,8.80
2018-09-27T07:27:31.319Z,9.90
2018-09-27T07:28:31.287Z,9.60
2018-09-27T07:29:31.251Z,6.80
2018-09-27T07:30:31.220Z,7.40
2018-09-27T07:31:31.190Z,8.40
2018-09-27T07:32:31.168Z,13.30
2018-09-27T07:33:31.119Z,12.50
2018-09-27T07:34:31.088Z,7.90
2018-09-27T07:35:31.366Z,12.80
2018-09-27T07:36:31.086Z,8.90
2018-09-27T07:37:31.002Z,9.20
2018-09-27T07:38:31.013Z,10.50
2018-09-27T07:39:30.925Z,12.40
2018-09-27T07:40:30.892Z,6.90
2018-09-27T07:41:30.858Z,9.50
2018-09-27T07:42:30.834Z,9.50
2018-09-27T07:43:30.793Z,7.40
2018-09-27T07:44:30.784Z,10.00
2018-09-27T07:45:30.729Z,9.60
2018-09-27T07:46:30.697Z,8.90
2018-09-27T07:47:30.663Z,13.10
2018-09-27T07:48:30.739Z,10.50
2018-09-27T07:49:30.599Z,11.90
2018-09-27T07:50:30.780Z,8.60
2018-09-27T07:51:30.530Z,10.90
2018-09-27T07:52:30.499Z,8.20
2018-09-27T07:53:30.469Z,10.90
2018-09-27T07:54:30.475Z,12.10
2018-09-27T07:55:30.405Z,11.60
2018-09-27T07:56:30.425Z,13.10
2018-09-27T07:57:30.334Z,11.20
2018-09-27T07:58:30.310Z,12.10
2018-09-27T07:59:30.272Z,8.10
2018-09-27T08:00:30.242Z,9.90
2018-09-27T08:01:30.204Z,11.20
2018-09-27T08:02:30.297Z,9.40
2018-09-27T08:03:30.140Z,13.90
2018-09-27T08:04:30.116Z,11.20
2018-09-27T08:05:30.070Z,11.80
2018-09-27T08:06:30.039Z,6.10
2018-09-27T08:07:30.010Z,9.10
2018-09-27T08:08:30.038Z,8.60
2018-09-27T08:09:29.940Z,8.80
2018-09-27T08:10:29.916Z,8.30
2018-09-27T08:11:29.968Z,8.50
2018-09-27T08:12:29.843Z,8.80
2018-09-27T08:13:29.810Z,8.70
2018-09-27T08:14:29.828Z,10.30
2018-09-27T08:15:29.744Z,8.30
2018-09-27T08:16:29.725Z,5.90
2018-09-27T08:17:29.877Z,7.10
2018-09-27T08:18:29.650Z,9.10
2018-09-27T08:19:29.653Z,7.60
2018-09-27T08:20:29.600Z,9.40
2018-09-27T08:21:29.548Z,8.50
2018-09-27T08:22:29.522Z,10.60
2018-09-27T08:23:29.731Z,11.40
2018-09-27T08:24:29.447Z,6.00
2018-09-27T08:25:29.415Z,6.10
2018-09-27T08:26:29.419Z,8.30
2018-09-27T08:27:29.349Z,5.80
2018-09-27T08:28:29.320Z,7.70
2018-09-27T08:29:29.595Z,5.80
2018-09-27T08:30:29.254Z,7.70
2018-09-27T08:31:29.228Z,9.10
2018-09-27T08:32:29.211Z,9.80
2018-09-27T08:33:29.153Z,6.40
2018-09-27T08:34:29.122Z,8.50
2018-09-27T08:35:29.091Z,8.20
2018-09-27T08:36:29.062Z,7.20
2018-09-27T08:37:29.040Z,6.70
2018-09-27T08:38:29.086Z,10.90
2018-09-27T08:39:28.961Z,8.40
2018-09-27T08:40:28.929Z,7.30
2018-09-27T08:41:28.896Z,8.50
2018-09-27T08:42:28.863Z,8.70
2018-09-27T08:43:28.827Z,8.70
2018-09-27T08:44:28.883Z,11.90
2018-09-27T08:45:28.806Z,8.40
2018-09-27T08:46:28.726Z,10.80
2018-09-27T08:47:28.693Z,7.20
2018-09-27T08:48:28.661Z,11.20
2018-09-27T08:49:28.628Z,10.90
2018-09-27T08:50:28.894Z,10.60
2018-09-27T08:51:28.585Z,10.80
2018-09-27T08:52:28.546Z,7.20
2018-09-27T08:53:28.498Z,10.20
2018-09-27T08:54:28.465Z,14.10
2018-09-27T08:55:28.455Z,10.50
2018-09-27T08:56:28.423Z,8.60
2018-09-27T08:57:28.411Z,12.40
2018-09-27T08:58:28.428Z,8.50
2018-09-27T08:59:28.297Z,7.30
2018-09-27T09:00:28.261Z,9.40
2018-09-27T09:01:28.270Z,11.90
2018-09-27T09:02:28.196Z,8.30
2018-09-27T09:03:28.234Z,10.00
2018-09-27T09:04:28.141Z,7.90
2018-09-27T09:05:28.097Z,5.30
2018-09-27T09:06:28.067Z,9.70
2018-09-27T09:07:28.077Z,6.10
2018-09-27T09:08:27.999Z,11.50
2018-09-27T09:09:28.025Z,4.90
2018-09-27T09:10:27.942Z,8.70
2018-09-27T09:11:27.909Z,9.40
2018-09-27T09:12:27.867Z,7.20
2018-09-27T09:13:27.867Z,9.80
2018-09-27T09:14:27.806Z,9.50
2018-09-27T09:15:27.811Z,10.90
2018-09-27T09:16:27.741Z,11.10
2018-09-27T09:17:28.102Z,12.60
2018-09-27T09:18:27.669Z,7.10
2018-09-27T09:19:27.646Z,9.30
2018-09-27T09:20:27.616Z,8.60
2018-09-27T09:21:27.642Z,6.90
2018-09-27T09:22:27.534Z,12.80
2018-09-27T09:23:27.710Z,7.90
2018-09-27T09:24:27.492Z,9.40
2018-09-27T09:25:27.485Z,7.40
2018-09-27T09:26:27.406Z,10.40
2018-09-27T09:27:27.386Z,9.20
2018-09-27T09:28:27.367Z,7.50
2018-09-27T09:29:27.338Z,10.40
2018-09-27T09:30:27.265Z,9.30
2018-09-27T09:31:27.233Z,8.70
2018-09-27T09:32:27.198Z,13.00
2018-09-27T09:33:27.207Z,12.00
2018-09-27T09:34:27.136Z,7.80
2018-09-27T09:35:27.151Z,11.70
2018-09-27T09:36:27.071Z,8.50
2018-09-27T09:37:27.034Z,6.70
2018-09-27T09:38:27.000Z,11.60
2018-09-27T09:39:26.970Z,6.40
2018-09-27T09:40:26.941Z,7.00
2018-09-27T09:41:26.902Z,9.70
2018-09-27T09:42:26.867Z,6.30
2018-09-27T09:43:26.839Z,8.80
2018-09-27T09:44:26.807Z,8.60
2018-09-27T09:45:26.771Z,8.30
2018-09-27T09:46:26.737Z,7.30
2018-09-27T09:47:26.713Z,6.30
2018-09-27T09:48:26.667Z,7.10
2018-09-27T09:49:26.835Z,6.70
2018-09-27T09:50:26.613Z,6.20
2018-09-27T09:51:26.574Z,7.70
2018-09-27T09:52:26.540Z,8.90
2018-09-27T09:53:26.506Z,8.60
2018-09-27T09:54:26.472Z,8.90
2018-09-27T09:55:26.646Z,6.60
2018-09-27T09:56:26.408Z,8.10
2018-09-27T09:57:26.370Z,8.30
2018-09-27T09:58:26.346Z,6.30
2018-09-27T09:59:26.308Z,7.00
2018-09-27T10:00:26.276Z,6.50
2018-09-27T10:01:26.244Z,6.70
2018-09-27T10:02:26.296Z,5.70
2018-09-27T10:03:26.176Z,8.70
2018-09-27T10:04:26.146Z,9.10
2018-09-27T10:05:26.481Z,12.00
2018-09-27T10:06:26.089Z,12.80
2018-09-27T10:07:26.063Z,12.80
2018-09-27T10:08:26.020Z,14.30
2018-09-27T10:09:26.002Z,5.40
2018-09-27T10:10:25.952Z,7.80
2018-09-27T10:11:25.927Z,6.70
2018-09-27T10:12:25.897Z,8.20
2018-09-27T10:13:25.857Z,9.60
2018-09-27T10:14:25.824Z,8.60
2018-09-27T10:15:25.792Z,9.60
2018-09-27T10:16:25.757Z,7.80
2018-09-27T10:17:25.735Z,7.60
2018-09-27T10:18:25.691Z,6.20
2018-09-27T10:19:25.662Z,10.70
2018-09-27T10:20:25.631Z,10.60
2018-09-27T10:21:25.595Z,8.40
2018-09-27T10:22:25.812Z,9.50
2018-09-27T10:23:25.532Z,8.40
2018-09-27T10:24:25.508Z,7.90
2018-09-27T10:25:25.471Z,12.80
2018-09-27T10:26:25.445Z,7.00
2018-09-27T10:27:25.430Z,8.00
2018-09-27T10:28:25.537Z,9.30
2018-09-27T10:29:25.338Z,14.10
2018-09-27T10:30:25.303Z,7.10
2018-09-27T10:31:25.276Z,10.60
2018-09-27T10:32:25.242Z,7.60
2018-09-27T10:33:25.213Z,5.50
2018-09-27T10:34:25.211Z,7.60
2018-09-27T10:35:25.154Z,7.60
2018-09-27T10:36:25.126Z,14.40
2018-09-27T10:37:25.099Z,12.60
2018-09-27T10:38:25.057Z,7.90
2018-09-27T10:39:25.025Z,5.20
2018-09-27T10:40:24.989Z,7.00
2018-09-27T10:41:24.952Z,7.50
2018-09-27T10:42:24.926Z,6.60
2018-09-27T10:43:24.899Z,6.70
2018-09-27T10:44:24.862Z,11.50
2018-09-27T10:45:24.822Z,7.60
2018-09-27T10:46:24.795Z,7.50
2018-09-27T10:47:24.768Z,6.50
2018-09-27T10:48:24.729Z,7.10
2018-09-27T10:49:24.849Z,9.40
2018-09-27T10:50:24.668Z,13.50
2018-09-27T10:51:24.638Z,9.20
2018-09-27T10:52:24.605Z,10.40
2018-09-27T10:53:24.572Z,12.00
2018-09-27T10:54:24.543Z,15.20
2018-09-27T10:55:24.726Z,8.80
2018-09-27T10:56:24.478Z,9.60
2018-09-27T10:57:24.447Z,10.10
2018-09-27T10:58:24.409Z,11.50
2018-09-27T10:59:24.384Z,13.80
2018-09-27T11:00:24.352Z,7.70
2018-09-27T11:01:24.332Z,11.40
2018-09-27T11:02:24.290Z,10.80
2018-09-27T11:03:24.264Z,14.90
2018-09-27T11:04:24.232Z,9.60
2018-09-27T11:05:24.252Z,9.60
2018-09-27T11:06:24.168Z,9.50
2018-09-27T11:07:24.137Z,13.00
2018-09-27T11:08:24.100Z,11.70
2018-09-27T11:09:24.075Z,11.40
2018-09-27T11:10:24.039Z,18.20
2018-09-27T11:11:24.036Z,16.20
2018-09-27T11:12:23.979Z,12.40
2018-09-27T11:13:23.955Z,14.70
2018-09-27T11:14:23.990Z,18.60
2018-09-27T11:18:23.894Z,15.60
2018-09-27T11:19:23.772Z,18.20
2018-09-27T11:20:23.821Z,12.10
2018-09-27T11:21:23.700Z,15.10
2018-09-27T11:22:23.666Z,10.60
2018-09-27T11:23:23.661Z,20.80
2018-09-27T11:24:23.757Z,11.60
2018-09-27T11:25:23.609Z,11.10
2018-09-27T11:26:23.547Z,21.90
2018-09-27T11:27:23.567Z,8.80
2018-09-27T11:28:23.486Z,12.70
2018-09-27T11:29:23.455Z,11.10
2018-09-27T11:30:23.481Z,9.50
2018-09-27T11:31:23.422Z,12.20
2018-09-27T11:32:23.360Z,14.00
2018-09-27T11:33:23.326Z,9.10
2018-09-27T11:34:23.299Z,7.80
2018-09-27T11:35:23.264Z,9.40
2018-09-27T11:36:23.309Z,7.50
2018-09-27T11:37:23.208Z,10.80
2018-09-27T11:38:23.200Z,6.30
2018-09-27T11:39:23.154Z,5.60
2018-09-27T11:40:23.127Z,10.80
2018-09-27T11:41:23.085Z,7.70
2018-09-27T11:42:23.125Z,5.90
2018-09-27T11:43:23.024Z,6.80
2018-09-27T11:44:23.060Z,8.30
2018-09-27T11:45:22.969Z,5.90
2018-09-27T11:46:22.933Z,6.50
2018-09-27T11:47:22.901Z,6.20
2018-09-27T11:48:22.871Z,6.40
2018-09-27T11:49:22.937Z,8.30
2018-09-27T11:50:23.011Z,7.70
2018-09-27T11:51:22.779Z,10.60
2018-09-27T11:52:22.770Z,7.10
2018-09-27T11:53:22.733Z,9.30
2018-09-27T11:54:22.723Z,6.60
2018-09-27T11:55:22.665Z,8.60
2018-09-27T11:56:22.638Z,7.30
2018-09-27T11:57:22.606Z,5.80
2018-09-27T11:58:22.569Z,4.80
2018-09-27T11:59:22.541Z,5.70
2018-09-27T12:00:22.549Z,4.70
2018-09-27T12:01:22.563Z,4.90
2018-09-27T12:02:22.455Z,7.70
2018-09-27T12:03:22.419Z,5.50
2018-09-27T12:04:22.390Z,5.30
2018-09-27T12:05:22.356Z,6.30
2018-09-27T12:06:22.324Z,3.90
2018-09-27T12:07:22.463Z,4.50
2018-09-27T12:08:22.268Z,7.60
2018-09-27T12:09:22.239Z,11.10
2018-09-27T12:10:22.215Z,4.20
2018-09-27T12:11:22.175Z,6.10
2018-09-27T12:12:22.144Z,7.00
2018-09-27T12:14:22.087Z,3.70
2018-09-27T12:15:22.059Z,5.80
2018-09-27T12:16:22.030Z,7.50
2018-09-27T12:17:21.998Z,6.50
2018-09-27T12:18:21.962Z,5.20
2018-09-27T12:19:21.938Z,3.70
2018-09-27T12:20:21.907Z,8.70
2018-09-27T12:21:21.884Z,6.40
2018-09-27T12:22:21.845Z,4.10
2018-09-27T12:23:21.976Z,4.00
2018-09-27T12:24:21.787Z,7.90
2018-09-27T12:25:21.756Z,7.30
2018-09-27T12:26:21.725Z,3.80
2018-09-27T12:27:21.705Z,5.10
2018-09-27T12:28:21.696Z,6.10
2018-09-27T12:29:21.788Z,6.10
2018-09-27T12:30:21.632Z,9.20
2018-09-27T12:31:21.576Z,9.70
2018-09-27T12:32:21.554Z,5.40
2018-09-27T12:33:21.540Z,5.70
2018-09-27T12:34:21.499Z,6.10
2018-09-27T12:35:21.474Z,5.50
2018-09-27T12:36:21.425Z,3.50
2018-09-27T12:37:21.397Z,5.30
2018-09-27T12:38:21.373Z,5.70
2018-09-27T12:39:21.389Z,6.20
2018-09-27T12:40:21.312Z,4.60
2018-09-27T12:41:21.280Z,4.80
2018-09-27T12:42:21.270Z,4.80
2018-09-27T12:43:21.218Z,5.40
2018-09-27T12:44:21.184Z,5.30
2018-09-27T12:45:21.168Z,3.40
2018-09-27T12:46:21.175Z,5.40
2018-09-27T12:47:21.101Z,4.30
2018-09-27T12:48:21.092Z,6.50
2018-09-27T12:49:21.040Z,5.30
2018-09-27T12:50:21.028Z,3.90
2018-09-27T12:51:21.187Z,6.70
2018-09-27T12:52:21.111Z,5.00
2018-09-27T12:53:20.945Z,5.20
2018-09-27T12:54:20.901Z,6.10
2018-09-27T12:55:20.880Z,6.80
2018-09-27T12:56:20.834Z,5.00
2018-09-27T12:57:20.803Z,4.40
2018-09-27T12:58:20.784Z,5.50
2018-09-27T12:59:20.755Z,5.10
2018-09-27T13:01:20.684Z,6.90
2018-09-27T13:02:20.700Z,5.70
2018-09-27T13:03:20.668Z,4.30
2018-09-27T13:04:20.593Z,6.50
2018-09-27T13:05:20.717Z,7.20
2018-09-27T13:06:20.538Z,5.60
2018-09-27T13:07:20.515Z,5.60
2018-09-27T13:08:20.487Z,6.00
2018-09-27T13:09:20.557Z,8.70
2018-09-27T13:10:20.498Z,3.90
2018-09-27T13:11:20.387Z,5.40
2018-09-27T13:12:20.383Z,3.90
2018-09-27T13:13:20.450Z,4.40
2018-09-27T13:14:20.307Z,5.50
2018-09-27T13:15:20.265Z,5.40